Sammy Cenac — WDH7565 — position and weather

sailwx.info

Track history (hours):
 
Tides and Currents Weather Stations Pressure Air Temp Water Temp Dewpoint Dewpoint Depression Visibility Wind Speed Wind Dir Waves Ship Positions

Sammy Cenac

Owner: Cenac Marine Services, Houma, LA. More information available from US FCC via Universal Licensing System and Coast Guard Vessel Documentation Center.

Last reported at 2018-Jan-12 09:45 UTC. Time now 2018-Feb-25 13:28 UTC.
Position N 29°56' W 093°01'.
Warning: this ship's position is 44 days out of date.

Length 22 m; draft 3 m.

Type: Tug. MMSI: 367649360.

Date/timePositionNaut miles runAvg speedWind from/ knotsBaromVisibWave heightAir tempDewpointWater temp
2018-Jan-12 09:45N 29°56' W 093°01'1 2.4
2018-Jan-12 09:29N 29°56' W 093°02'1 2.2
2018-Jan-12 09:00N 29°56' W 093°03'1 2.2
2018-Jan-12 08:30N 29°56' W 093°05'2 3.1
2018-Jan-12 08:00N 29°56' W 093°06'1 3.0
2018-Jan-12 07:30N 29°56' W 093°08'1 2.7
2018-Jan-12 07:00N 29°56' W 093°10'1 2.9
2018-Jan-12 06:30N 29°57' W 093°11'1 1.5
2018-Jan-12 06:00N 29°58' W 093°11'1 2.7
2018-Jan-12 05:30N 29°59' W 093°12'2 3.6
2018-Jan-12 05:00N 30°00' W 093°14'2 3.8
2018-Jan-12 04:30N 30°02' W 093°15'2 3.2
2018-Jan-12 04:00N 30°03' W 093°16'2 3.8
2018-Jan-12 03:30N 30°05' W 093°17'1 1.8
2018-Jan-12 03:00N 30°05' W 093°18'1 1.2
2018-Jan-12 02:30N 30°06' W 093°18'0 0.2
2018-Jan-12 02:00N 30°06' W 093°18'0 0.0
2018-Jan-12 01:29N 30°06' W 093°18'0 0.2
2018-Jan-12 01:00N 30°06' W 093°18'1 3.0
2018-Jan-12 00:30N 30°05' W 093°20'2 3.5
2018-Jan-12 00:00N 30°04' W 093°21'1 2.7
2018-Jan-11 23:30N 30°04' W 093°23'1 2.7
2018-Jan-11 23:00N 30°04' W 093°24'2 4.2
2018-Jan-11 22:30N 30°04' W 093°26'2 4.9
2018-Jan-11 22:00N 30°04' W 093°29'3 4.9
2018-Jan-11 21:29N 30°04' W 093°32'2 4.8
2018-Jan-11 21:00N 30°04' W 093°35'3 4.5
2018-Jan-11 20:24N 30°04' W 093°38'2 4.8
2018-Jan-11 20:00N 30°04' W 093°40'71 3.0
2018-Jan-10 20:41N 29°31' W 094°53'1 6.4
2018-Jan-10 20:30N 29°32' W 094°54'3 6.5
2018-Jan-10 20:00N 29°34' W 094°56'3 6.8
2018-Jan-10 19:30N 29°37' W 094°58'3 6.9
2018-Jan-10 19:00N 29°41' W 094°59'4 3.4
2018-Jan-10 17:48N 29°44' W 095°02'1 1.8
2018-Jan-10 17:26N 29°44' W 095°02'0 0.6
2018-Jan-10 16:50N 29°44' W 095°03'0 0.0
2018-Jan-09 22:45N 29°44' W 095°03'0 0.0
2018-Jan-09 22:31N 29°44' W 095°03'0 0.0
2018-Jan-09 20:09N 29°44' W 095°03'0 0.0
2018-Jan-09 20:00N 29°44' W 095°03'0 0.0
2018-Jan-09 19:30N 29°44' W 095°03'0 0.0
2018-Jan-09 19:00N 29°44' W 095°03'0 0.0
2018-Jan-09 18:28N 29°44' W 095°03'0 0.0
2018-Jan-09 18:00N 29°44' W 095°03'0 0.0
2018-Jan-09 17:30N 29°44' W 095°03'0 0.0
2018-Jan-09 16:57N 29°44' W 095°03'0 0.0
2018-Jan-09 16:30N 29°44' W 095°03'0 0.7
2018-Jan-09 16:00N 29°44' W 095°03'0 0.1
2018-Jan-09 15:30N 29°44' W 095°03'0 0.0
2018-Jan-09 15:01N 29°44' W 095°03'0 0.0
2018-Jan-09 14:31N 29°44' W 095°03'0 0.0
2018-Jan-09 13:58N 29°44' W 095°03'0 0.0
2018-Jan-09 13:30N 29°44' W 095°03'0 0.0
2018-Jan-09 13:00N 29°44' W 095°03'0 0.0
2018-Jan-09 12:30N 29°44' W 095°03'2 2.2
2018-Jan-09 11:29N 29°42' W 095°01'  
2018-Jan-04 13:29N 29°31' W 094°53'3 5.9
2018-Jan-04 13:00N 29°33' W 094°55'3 5.3
2018-Jan-04 12:30N 29°35' W 094°56'3 5.5
2018-Jan-04 12:00N 29°38' W 094°58'3 5.4
2018-Jan-04 11:30N 29°40' W 094°59'3 5.6
2018-Jan-04 11:00N 29°42' W 095°01'1 2.2
2018-Jan-04 10:23N 29°43' W 095°03'0 0.5
2018-Jan-04 09:59N 29°42' W 095°03'0 0.0
2018-Jan-04 09:26N 29°42' W 095°03'0 0.0
2018-Jan-04 08:50N 29°42' W 095°03'0 0.0
2018-Jan-04 08:29N 29°42' W 095°03'0 0.0
2018-Jan-04 07:35N 29°42' W 095°03'0 0.0
2018-Jan-04 07:11N 29°42' W 095°03'0 0.0
2018-Jan-04 06:56N 29°42' W 095°03'0 0.0
2018-Jan-04 05:53N 29°42' W 095°03'0 0.0
2018-Jan-04 05:23N 29°42' W 095°03'0 0.0
2018-Jan-04 04:41N 29°42' W 095°03'0 0.0
2018-Jan-04 04:29N 29°42' W 095°03'0 0.0
2018-Jan-04 03:59N 29°42' W 095°03'0 0.0
2018-Jan-04 01:47N 29°42' W 095°03'0 0.0
2018-Jan-03 13:56N 29°42' W 095°03'0 0.0
2018-Jan-03 06:05N 29°42' W 095°03'0 0.0
2018-Jan-03 05:35N 29°42' W 095°03'0 0.0
2018-Jan-03 05:05N 29°42' W 095°03'0 0.0
2018-Jan-03 04:50N 29°42' W 095°03'0 0.0
2018-Jan-03 03:50N 29°42' W 095°03'0 0.0
2018-Jan-03 03:17N 29°42' W 095°03'0 0.0
2018-Jan-03 02:59N 29°42' W 095°03'0 0.0
2018-Jan-03 01:59N 29°42' W 095°03'0 0.0
2018-Jan-02 23:50N 29°42' W 095°03'0 0.0
2018-Jan-02 22:02N 29°42' W 095°03'0 0.0
2018-Jan-02 21:38N 29°42' W 095°03'0 0.0
2018-Jan-02 18:39N 29°42' W 095°03'1 0.7
2018-Jan-02 16:54N 29°42' W 095°01'2 2.6
2018-Jan-02 16:08N 29°44' W 095°03'  
Track history (hours):
 
Tides and Currents Weather Stations Pressure Air Temp Water Temp Dewpoint Dewpoint Depression Visibility Wind Speed Wind Dir Waves Ship Positions

Sammy Cenac

Owner: Cenac Marine Services, Houma, LA. More information available from US FCC via Universal Licensing System and Coast Guard Vessel Documentation Center.

Last reported at 2018-Jan-12 09:45 UTC. Time now 2018-Feb-25 13:28 UTC.
Position N 29°56' W 093°01'.
Warning: this ship's position is 44 days out of date.

Length 22 m; draft 3 m.

Type: Tug. MMSI: 367649360.

Date/timePositionNaut miles runAvg speedWind from/ knotsBaromVisibWave heightAir tempDewpointWater temp
2018-Jan-12 09:45N 29°56' W 093°01'1 2.4
2018-Jan-12 09:29N 29°56' W 093°02'1 2.2
2018-Jan-12 09:00N 29°56' W 093°03'1 2.2
2018-Jan-12 08:30N 29°56' W 093°05'2 3.1
2018-Jan-12 08:00N 29°56' W 093°06'1 3.0
2018-Jan-12 07:30N 29°56' W 093°08'1 2.7
2018-Jan-12 07:00N 29°56' W 093°10'1 2.9
2018-Jan-12 06:30N 29°57' W 093°11'1 1.5
2018-Jan-12 06:00N 29°58' W 093°11'1 2.7
2018-Jan-12 05:30N 29°59' W 093°12'2 3.6
2018-Jan-12 05:00N 30°00' W 093°14'2 3.8
2018-Jan-12 04:30N 30°02' W 093°15'2 3.2
2018-Jan-12 04:00N 30°03' W 093°16'2 3.8
2018-Jan-12 03:30N 30°05' W 093°17'1 1.8
2018-Jan-12 03:00N 30°05' W 093°18'1 1.2
2018-Jan-12 02:30N 30°06' W 093°18'0 0.2
2018-Jan-12 02:00N 30°06' W 093°18'0 0.0
2018-Jan-12 01:29N 30°06' W 093°18'0 0.2
2018-Jan-12 01:00N 30°06' W 093°18'1 3.0
2018-Jan-12 00:30N 30°05' W 093°20'2 3.5
2018-Jan-12 00:00N 30°04' W 093°21'1 2.7
2018-Jan-11 23:30N 30°04' W 093°23'1 2.7
2018-Jan-11 23:00N 30°04' W 093°24'2 4.2
2018-Jan-11 22:30N 30°04' W 093°26'2 4.9
2018-Jan-11 22:00N 30°04' W 093°29'3 4.9
2018-Jan-11 21:29N 30°04' W 093°32'2 4.8
2018-Jan-11 21:00N 30°04' W 093°35'3 4.5
2018-Jan-11 20:24N 30°04' W 093°38'2 4.8
2018-Jan-11 20:00N 30°04' W 093°40'71 3.0
2018-Jan-10 20:41N 29°31' W 094°53'1 6.4
2018-Jan-10 20:30N 29°32' W 094°54'3 6.5
2018-Jan-10 20:00N 29°34' W 094°56'3 6.8
2018-Jan-10 19:30N 29°37' W 094°58'3 6.9
2018-Jan-10 19:00N 29°41' W 094°59'4 3.4
2018-Jan-10 17:48N 29°44' W 095°02'1 1.8
2018-Jan-10 17:26N 29°44' W 095°02'0 0.6
2018-Jan-10 16:50N 29°44' W 095°03'0 0.0
2018-Jan-09 22:45N 29°44' W 095°03'0 0.0
2018-Jan-09 22:31N 29°44' W 095°03'0 0.0
2018-Jan-09 20:09N 29°44' W 095°03'0 0.0
2018-Jan-09 20:00N 29°44' W 095°03'0 0.0
2018-Jan-09 19:30N 29°44' W 095°03'0 0.0
2018-Jan-09 19:00N 29°44' W 095°03'0 0.0
2018-Jan-09 18:28N 29°44' W 095°03'0 0.0
2018-Jan-09 18:00N 29°44' W 095°03'0 0.0
2018-Jan-09 17:30N 29°44' W 095°03'0 0.0
2018-Jan-09 16:57N 29°44' W 095°03'0 0.0
2018-Jan-09 16:30N 29°44' W 095°03'0 0.7
2018-Jan-09 16:00N 29°44' W 095°03'0 0.1
2018-Jan-09 15:30N 29°44' W 095°03'0 0.0
2018-Jan-09 15:01N 29°44' W 095°03'0 0.0
2018-Jan-09 14:31N 29°44' W 095°03'0 0.0
2018-Jan-09 13:58N 29°44' W 095°03'0 0.0
2018-Jan-09 13:30N 29°44' W 095°03'0 0.0
2018-Jan-09 13:00N 29°44' W 095°03'0 0.0
2018-Jan-09 12:30N 29°44' W 095°03'2 2.2
2018-Jan-09 11:29N 29°42' W 095°01'  
2018-Jan-04 13:29N 29°31' W 094°53'3 5.9
2018-Jan-04 13:00N 29°33' W 094°55'3 5.3
2018-Jan-04 12:30N 29°35' W 094°56'3 5.5
2018-Jan-04 12:00N 29°38' W 094°58'3 5.4
2018-Jan-04 11:30N 29°40' W 094°59'3 5.6
2018-Jan-04 11:00N 29°42' W 095°01'1 2.2
2018-Jan-04 10:23N 29°43' W 095°03'0 0.5
2018-Jan-04 09:59N 29°42' W 095°03'0 0.0
2018-Jan-04 09:26N 29°42' W 095°03'0 0.0
2018-Jan-04 08:50N 29°42' W 095°03'0 0.0
2018-Jan-04 08:29N 29°42' W 095°03'0 0.0
2018-Jan-04 07:35N 29°42' W 095°03'0 0.0
2018-Jan-04 07:11N 29°42' W 095°03'0 0.0
2018-Jan-04 06:56N 29°42' W 095°03'0 0.0
2018-Jan-04 05:53N 29°42' W 095°03'0 0.0
2018-Jan-04 05:23N 29°42' W 095°03'0 0.0
2018-Jan-04 04:41N 29°42' W 095°03'0 0.0
2018-Jan-04 04:29N 29°42' W 095°03'0 0.0
2018-Jan-04 03:59N 29°42' W 095°03'0 0.0
2018-Jan-04 01:47N 29°42' W 095°03'0 0.0
2018-Jan-03 13:56N 29°42' W 095°03'0 0.0
2018-Jan-03 06:05N 29°42' W 095°03'0 0.0
2018-Jan-03 05:35N 29°42' W 095°03'0 0.0
2018-Jan-03 05:05N 29°42' W 095°03'0 0.0
2018-Jan-03 04:50N 29°42' W 095°03'0 0.0
2018-Jan-03 03:50N 29°42' W 095°03'0 0.0
2018-Jan-03 03:17N 29°42' W 095°03'0 0.0
2018-Jan-03 02:59N 29°42' W 095°03'0 0.0
2018-Jan-03 01:59N 29°42' W 095°03'0 0.0
2018-Jan-02 23:50N 29°42' W 095°03'0 0.0
2018-Jan-02 22:02N 29°42' W 095°03'0 0.0
2018-Jan-02 21:38N 29°42' W 095°03'0 0.0
2018-Jan-02 18:39N 29°42' W 095°03'1 0.7
2018-Jan-02 16:54N 29°42' W 095°01'2 2.6
2018-Jan-02 16:08N 29°44' W 095°03'  

Dump ship's entire track history